createdAt,value
2018-10-17T00:00:20.165Z,10.10
2018-10-17T00:02:48.265Z,10.00
2018-10-17T00:05:16.342Z,9.30
2018-10-17T00:07:44.410Z,9.00
2018-10-17T00:10:12.478Z,9.70
2018-10-17T00:12:41.246Z,9.37
2018-10-17T00:15:09.730Z,9.93
2018-10-17T00:17:37.805Z,10.07
2018-10-17T00:20:07.034Z,8.97
2018-10-17T00:22:35.114Z,10.00
2018-10-17T00:25:03.218Z,9.20
2018-10-17T00:27:31.278Z,9.00
2018-10-17T00:29:59.519Z,9.30
2018-10-17T00:32:27.593Z,9.50
2018-10-17T00:34:55.719Z,9.00
2018-10-17T00:37:23.738Z,8.60
2018-10-17T00:39:51.793Z,8.50
2018-10-17T00:42:19.865Z,8.77
2018-10-17T00:44:47.932Z,8.67
2018-10-17T00:47:16.069Z,8.27
2018-10-17T00:49:44.090Z,9.00
2018-10-17T00:52:12.171Z,10.37
2018-10-17T00:54:40.246Z,8.67
2018-10-17T00:57:08.317Z,9.50
2018-10-17T00:59:36.393Z,8.00
2018-10-17T01:02:04.854Z,9.93
2018-10-17T01:04:32.922Z,10.40
2018-10-17T01:07:01.095Z,9.90
2018-10-17T01:09:29.131Z,8.63
2018-10-17T01:11:57.205Z,10.20
2018-10-17T01:14:25.284Z,9.40
2018-10-17T01:16:53.397Z,9.20
2018-10-17T01:19:21.433Z,8.77
2018-10-17T01:21:49.504Z,9.17
2018-10-17T01:24:17.579Z,8.37
2018-10-17T01:26:45.658Z,9.13
2018-10-17T01:29:13.807Z,9.70
2018-10-17T01:31:41.799Z,9.83
2018-10-17T01:34:09.869Z,8.53
2018-10-17T01:36:37.945Z,8.60
2018-10-17T01:39:07.730Z,9.17
2018-10-17T01:41:35.816Z,8.20
2018-10-17T01:44:03.878Z,8.33
2018-10-17T01:46:31.950Z,8.57
2018-10-17T01:49:00.044Z,9.10
2018-10-17T01:51:28.077Z,7.63
2018-10-17T01:53:56.161Z,8.50
2018-10-17T01:56:24.263Z,8.30
2018-10-17T01:58:52.329Z,8.30
2018-10-17T02:01:20.391Z,7.90
2018-10-17T02:03:48.458Z,8.20
2018-10-17T02:06:16.529Z,7.93
2018-10-17T02:08:44.754Z,7.93
2018-10-17T02:11:12.917Z,8.63
2018-10-17T02:13:40.890Z,8.63
2018-10-17T02:16:08.947Z,7.50
2018-10-17T02:18:37.019Z,8.70
2018-10-17T02:21:05.513Z,8.27
2018-10-17T02:23:33.594Z,7.83
2018-10-17T02:26:01.667Z,7.67
2018-10-17T02:28:29.750Z,7.57
2018-10-17T02:30:57.834Z,7.47
2018-10-17T02:33:25.895Z,7.90
2018-10-17T02:35:53.962Z,6.83
2018-10-17T02:38:22.034Z,7.40
2018-10-17T02:40:50.105Z,7.80
2018-10-17T02:43:18.333Z,7.70
2018-10-17T02:45:46.294Z,7.77
2018-10-17T02:48:14.369Z,7.17
2018-10-17T02:50:42.433Z,7.30
2018-10-17T02:53:10.577Z,8.53
2018-10-17T02:55:38.577Z,8.20
2018-10-17T02:58:06.652Z,7.90
2018-10-17T03:00:34.723Z,7.60
2018-10-17T03:03:02.796Z,8.00
2018-10-17T03:05:30.907Z,8.40
2018-10-17T03:07:58.954Z,8.10
2018-10-17T03:10:27.030Z,8.00
2018-10-17T03:12:55.138Z,8.50
2018-10-17T03:15:23.171Z,8.40
2018-10-17T03:17:51.252Z,7.00
2018-10-17T03:20:19.321Z,7.70
2018-10-17T03:22:47.386Z,6.80
2018-10-17T03:25:15.472Z,8.00
2018-10-17T03:27:43.583Z,6.70
2018-10-17T03:30:11.603Z,7.47
2018-10-17T03:32:39.683Z,7.80
2018-10-17T03:35:07.909Z,7.77
2018-10-17T03:37:36.276Z,7.50
2018-10-17T03:40:04.690Z,7.57
2018-10-17T03:42:32.778Z,8.10
2018-10-17T03:45:00.847Z,7.40
2018-10-17T03:47:28.923Z,8.60
2018-10-17T03:49:57.040Z,8.77
2018-10-17T03:52:25.071Z,7.50
2018-10-17T03:54:53.215Z,8.30
2018-10-17T03:57:21.230Z,7.37
2018-10-17T03:59:49.387Z,7.77
2018-10-17T04:02:17.371Z,6.83
2018-10-17T04:04:45.442Z,8.33
2018-10-17T04:07:13.596Z,8.20
2018-10-17T04:09:41.578Z,6.40
2018-10-17T04:12:09.647Z,7.40
2018-10-17T04:14:37.730Z,8.40
2018-10-17T04:17:05.929Z,8.47
2018-10-17T04:19:33.964Z,8.37
2018-10-17T04:22:02.027Z,7.20
2018-10-17T04:24:30.098Z,7.40
2018-10-17T04:26:58.172Z,8.00
2018-10-17T04:29:26.853Z,8.37
2018-10-17T04:31:54.922Z,7.93
2018-10-17T04:34:22.997Z,9.90
2018-10-17T04:36:51.075Z,8.17
2018-10-17T04:39:19.145Z,8.00
2018-10-17T04:41:47.214Z,8.00
2018-10-17T04:44:15.291Z,7.90
2018-10-17T04:46:43.362Z,8.67
2018-10-17T04:49:11.520Z,7.80
2018-10-17T04:51:39.518Z,8.10
2018-10-17T04:54:07.735Z,7.10
2018-10-17T04:56:36.014Z,8.40
2018-10-17T04:59:04.244Z,8.70
2018-10-17T05:01:32.267Z,8.17
2018-10-17T05:04:00.351Z,7.60
2018-10-17T05:06:28.424Z,7.47
2018-10-17T05:08:56.499Z,7.80
2018-10-17T05:11:24.578Z,8.03
2018-10-17T05:13:53.231Z,8.07
2018-10-17T05:16:21.502Z,7.30
2018-10-17T05:18:49.579Z,7.63
2018-10-17T05:21:17.662Z,8.40
2018-10-17T05:23:45.751Z,8.90
2018-10-17T05:26:13.850Z,7.83
2018-10-17T05:28:41.920Z,8.60
2018-10-17T05:31:10.050Z,8.37
2018-10-17T05:33:38.222Z,7.90
2018-10-17T05:36:06.306Z,8.00
2018-10-17T05:38:34.397Z,8.00
2018-10-17T05:41:02.523Z,8.80
2018-10-17T05:43:30.532Z,8.30
2018-10-17T05:45:58.778Z,8.37
2018-10-17T05:48:26.858Z,8.77
2018-10-17T05:50:54.937Z,9.10
2018-10-17T05:53:23.206Z,9.30
2018-10-17T05:55:51.324Z,8.67
2018-10-17T05:58:19.414Z,8.43
2018-10-17T06:00:47.482Z,9.27
2018-10-17T06:03:15.578Z,8.97
2018-10-17T06:05:43.644Z,8.43
2018-10-17T06:08:11.702Z,8.53
2018-10-17T06:10:39.780Z,8.57
2018-10-17T06:13:07.868Z,9.37
2018-10-17T06:15:35.931Z,8.70
2018-10-17T06:18:03.998Z,9.37
2018-10-17T06:20:32.181Z,9.50
2018-10-17T06:23:00.279Z,8.73
2018-10-17T06:25:28.379Z,9.43
2018-10-17T06:27:56.386Z,8.97
2018-10-17T06:30:24.455Z,9.97
2018-10-17T06:32:52.539Z,9.60
2018-10-17T06:35:20.680Z,8.40
2018-10-17T06:37:48.694Z,9.40
2018-10-17T06:40:16.780Z,9.13
2018-10-17T06:42:44.851Z,10.10
2018-10-17T06:45:12.926Z,9.33
2018-10-17T06:47:41.017Z,8.93
2018-10-17T06:50:09.790Z,9.70
2018-10-17T06:52:37.858Z,9.90
2018-10-17T06:55:06.576Z,9.37
2018-10-17T06:57:34.560Z,9.83
2018-10-17T07:00:02.646Z,10.00
2018-10-17T07:02:30.724Z,9.90
2018-10-17T07:04:58.810Z,10.03
2018-10-17T07:07:26.879Z,10.40
2018-10-17T07:09:54.978Z,9.63
2018-10-17T07:12:23.059Z,9.60
2018-10-17T07:14:51.135Z,9.27
2018-10-17T07:17:19.202Z,10.40
2018-10-17T07:19:47.280Z,9.07
2018-10-17T07:22:15.358Z,9.80
2018-10-17T07:24:43.453Z,10.67
2018-10-17T07:27:11.532Z,11.60
2018-10-17T07:29:39.776Z,12.40
2018-10-17T07:32:07.691Z,11.73
2018-10-17T07:34:35.770Z,11.50
2018-10-17T07:37:03.843Z,12.40
2018-10-17T07:39:31.922Z,11.50
2018-10-17T07:42:00.005Z,10.90
2018-10-17T07:44:28.786Z,6.40
2018-10-17T07:46:56.856Z,9.87
2018-10-17T07:49:24.926Z,11.40
2018-10-17T07:51:52.991Z,11.03
2018-10-17T07:54:21.150Z,12.03
2018-10-17T07:56:49.473Z,10.33
2018-10-17T07:59:17.543Z,10.00
2018-10-17T08:01:45.627Z,10.50
2018-10-17T08:04:13.702Z,10.10
2018-10-17T08:06:41.898Z,9.73
2018-10-17T08:09:10.870Z,9.57
2018-10-17T08:11:38.960Z,9.90
2018-10-17T08:14:07.233Z,9.40
2018-10-17T08:16:35.292Z,9.77
2018-10-17T08:19:03.355Z,8.70
2018-10-17T08:21:31.711Z,8.30
2018-10-17T08:23:59.736Z,9.30
2018-10-17T08:26:27.978Z,9.40
2018-10-17T08:28:56.050Z,10.00
2018-10-17T08:31:24.114Z,8.90
2018-10-17T08:33:52.387Z,9.27
2018-10-17T08:36:20.650Z,9.43
2018-10-17T08:38:48.527Z,9.10
2018-10-17T08:41:16.616Z,8.30
2018-10-17T08:43:44.674Z,9.00
2018-10-17T08:46:13.574Z,9.60
2018-10-17T08:48:41.695Z,9.63
2018-10-17T08:51:10.048Z,9.47
2018-10-17T08:53:38.102Z,10.07
2018-10-17T08:56:06.311Z,8.63
2018-10-17T08:58:34.334Z,9.60
2018-10-17T09:01:02.410Z,9.67
2018-10-17T09:03:30.483Z,9.63
2018-10-17T09:05:58.584Z,11.00
2018-10-17T09:08:26.642Z,9.40
2018-10-17T09:10:54.714Z,13.07
2018-10-17T09:13:22.838Z,11.50
2018-10-17T09:15:50.893Z,10.30
2018-10-17T09:18:18.955Z,12.13
2018-10-17T09:20:47.141Z,11.93
2018-10-17T09:23:15.082Z,12.93
2018-10-17T09:25:43.205Z,11.10
2018-10-17T09:28:11.476Z,12.47
2018-10-17T09:30:39.457Z,11.90
2018-10-17T09:33:07.478Z,9.50
2018-10-17T09:35:35.604Z,9.60
2018-10-17T09:38:03.624Z,9.67
2018-10-17T09:40:32.810Z,9.90
2018-10-17T09:43:00.904Z,8.30
2018-10-17T09:45:29.008Z,8.80
2018-10-17T09:47:58.116Z,9.10
2018-10-17T09:50:26.190Z,10.10
2018-10-17T09:52:54.261Z,10.10
2018-10-17T09:55:22.354Z,9.13
2018-10-17T09:57:50.426Z,9.17
2018-10-17T10:00:23.875Z,9.13
2018-10-17T10:02:52.819Z,9.90
2018-10-17T10:05:21.517Z,10.03
2018-10-17T10:07:49.606Z,10.30
2018-10-17T10:10:17.799Z,10.50
2018-10-17T10:12:45.762Z,11.10
2018-10-17T10:15:13.843Z,11.10
2018-10-17T10:17:42.006Z,10.60
2018-10-17T10:20:09.983Z,9.07
2018-10-17T10:22:38.058Z,9.17
2018-10-17T10:25:06.329Z,8.90
2018-10-17T10:27:34.363Z,8.30
2018-10-17T10:30:02.563Z,8.10
2018-10-17T10:32:30.622Z,8.60
2018-10-17T10:34:58.675Z,9.47
2018-10-17T10:37:26.849Z,9.10
2018-10-17T10:39:54.939Z,8.50
2018-10-17T10:42:23.211Z,8.23
2018-10-17T10:44:51.328Z,8.47
2018-10-17T10:47:19.378Z,9.63
2018-10-17T10:49:47.587Z,9.40
2018-10-17T10:52:15.689Z,9.40
2018-10-17T10:54:43.754Z,8.30
2018-10-17T10:57:11.921Z,8.40
2018-10-17T10:59:40.095Z,8.70
2018-10-17T11:02:08.060Z,7.90
2018-10-17T11:04:36.109Z,8.03
2018-10-17T11:07:04.135Z,8.07
2018-10-17T11:09:32.203Z,8.40
2018-10-17T11:12:00.262Z,7.53
2018-10-17T11:14:28.499Z,8.13
2018-10-17T11:16:56.537Z,7.60
2018-10-17T11:19:24.534Z,8.20
2018-10-17T11:21:52.632Z,7.30
2018-10-17T11:24:20.678Z,8.30
2018-10-17T11:26:48.750Z,7.93
2018-10-17T11:29:16.924Z,7.70
2018-10-17T11:31:45.007Z,8.77
2018-10-17T11:34:13.050Z,8.37
2018-10-17T11:36:41.170Z,8.47
2018-10-17T11:39:09.943Z,9.13
2018-10-17T11:41:38.091Z,8.37
2018-10-17T11:44:06.091Z,9.73
2018-10-17T11:46:34.411Z,7.70
2018-10-17T11:49:02.682Z,8.47
2018-10-17T11:51:30.812Z,8.10
2018-10-17T11:53:58.875Z,8.20
2018-10-17T11:56:26.993Z,7.10
2018-10-17T11:58:55.071Z,8.17
2018-10-17T12:01:23.170Z,8.53
2018-10-17T12:03:52.046Z,8.40
2018-10-17T12:06:19.945Z,8.40
2018-10-17T12:08:47.910Z,8.50
2018-10-17T12:11:16.650Z,8.40
2018-10-17T12:13:44.790Z,8.80
2018-10-17T12:16:12.892Z,9.13
2018-10-17T12:18:40.959Z,10.70
2018-10-17T12:21:09.063Z,8.70
2018-10-17T12:23:37.088Z,7.90
2018-10-17T12:26:05.155Z,8.77
2018-10-17T12:28:33.320Z,8.73
2018-10-17T12:31:01.294Z,8.57
2018-10-17T12:33:29.375Z,9.33
2018-10-17T12:35:57.440Z,8.37
2018-10-17T12:38:25.510Z,8.80
2018-10-17T12:40:53.749Z,10.20
2018-10-17T12:43:21.702Z,10.70
2018-10-17T12:45:49.886Z,9.67
2018-10-17T12:48:17.922Z,10.77
2018-10-17T12:50:45.979Z,9.53
2018-10-17T12:53:14.160Z,10.50
2018-10-17T12:55:42.143Z,10.73
2018-10-17T12:58:10.218Z,10.13
2018-10-17T13:00:38.298Z,8.87
2018-10-17T13:03:06.382Z,8.73
2018-10-17T13:05:34.446Z,9.10
2018-10-17T13:08:02.525Z,8.37
2018-10-17T13:10:30.586Z,9.13
2018-10-17T13:12:58.689Z,8.90
2018-10-17T13:15:26.725Z,8.30
2018-10-17T13:17:54.802Z,7.73
2018-10-17T13:20:22.862Z,7.20
2018-10-17T13:22:50.952Z,7.37
2018-10-17T13:25:19.011Z,8.93
2018-10-17T13:27:47.198Z,7.30
2018-10-17T13:30:15.262Z,7.50
2018-10-17T13:32:43.407Z,7.23
2018-10-17T13:35:11.503Z,6.03
2018-10-17T13:37:39.539Z,6.80
2018-10-17T13:40:07.639Z,7.33
2018-10-17T13:42:35.760Z,7.70
2018-10-17T13:45:03.780Z,8.10
2018-10-17T13:47:31.850Z,6.00
2018-10-17T13:49:59.918Z,7.50
2018-10-17T13:52:27.979Z,7.30
2018-10-17T13:54:56.060Z,7.83
2018-10-17T13:57:24.128Z,8.20
2018-10-17T13:59:52.225Z,8.07
2018-10-17T14:02:20.288Z,8.10
2018-10-17T14:04:48.364Z,7.80
2018-10-17T14:07:16.480Z,7.93
2018-10-17T14:09:44.527Z,7.37
2018-10-17T14:12:12.686Z,8.30
2018-10-17T14:14:40.666Z,8.40
2018-10-17T14:17:08.722Z,8.50
2018-10-17T14:19:36.811Z,9.33
2018-10-17T14:22:05.652Z,9.27
2018-10-17T14:24:33.742Z,9.10
2018-10-17T14:27:01.836Z,8.90
2018-10-17T14:29:29.896Z,9.40
2018-10-17T14:31:57.959Z,10.13
2018-10-17T14:34:26.034Z,9.23
2018-10-17T14:36:54.128Z,8.53
2018-10-17T14:39:22.294Z,9.60
2018-10-17T14:41:50.260Z,9.20
2018-10-17T14:44:18.334Z,9.13
2018-10-17T14:46:46.414Z,10.37
2018-10-17T14:49:14.500Z,9.93
2018-10-17T14:51:42.594Z,9.80
2018-10-17T14:54:10.679Z,10.27
2018-10-17T14:56:38.754Z,8.83
2018-10-17T14:59:06.892Z,10.00
2018-10-17T15:01:34.930Z,9.33
2018-10-17T15:04:03.003Z,9.93
2018-10-17T15:06:31.067Z,9.07
2018-10-17T15:08:59.165Z,10.60
2018-10-17T15:11:27.284Z,9.03
2018-10-17T15:13:55.426Z,9.70
2018-10-17T15:16:23.502Z,9.80
2018-10-17T15:18:51.578Z,10.10
2018-10-17T15:21:19.650Z,10.10
2018-10-17T15:23:47.751Z,10.17
2018-10-17T15:26:15.818Z,10.20
2018-10-17T15:28:43.897Z,9.70
2018-10-17T15:31:12.803Z,11.40
2018-10-17T15:33:40.851Z,11.20
2018-10-17T15:36:09.113Z,10.50
2018-10-17T15:38:37.192Z,10.47
2018-10-17T15:41:05.268Z,7.83
2018-10-17T15:43:33.376Z,10.67
2018-10-17T15:46:01.439Z,10.23
2018-10-17T15:48:29.523Z,11.73
2018-10-17T15:50:57.628Z,13.23
2018-10-17T15:53:25.733Z,12.20
2018-10-17T15:55:53.739Z,12.97
2018-10-17T15:58:21.827Z,11.63
2018-10-17T16:00:49.913Z,12.07
2018-10-17T16:03:17.987Z,16.80
2018-10-17T16:05:46.062Z,13.00
2018-10-17T16:08:14.294Z,12.80
2018-10-17T16:10:42.318Z,11.50
2018-10-17T16:13:10.417Z,11.47
2018-10-17T16:15:40.502Z,11.70
2018-10-17T16:18:10.409Z,11.03
2018-10-17T16:20:38.486Z,10.83
2018-10-17T16:23:06.812Z,11.40
2018-10-17T16:25:34.895Z,9.97
2018-10-17T16:28:02.971Z,10.20
2018-10-17T16:30:31.114Z,11.50
2018-10-17T16:32:59.131Z,11.20
2018-10-17T16:35:27.198Z,11.70
2018-10-17T16:37:55.338Z,11.00
2018-10-17T16:40:23.359Z,12.30
2018-10-17T16:42:51.431Z,11.57
2018-10-17T16:45:19.702Z,10.83
2018-10-17T16:47:47.764Z,11.80
2018-10-17T16:50:15.972Z,11.13
2018-10-17T16:52:44.224Z,12.30
2018-10-17T16:55:12.329Z,11.73
2018-10-17T16:57:40.370Z,11.93
2018-10-17T17:00:09.854Z,11.43
2018-10-17T17:02:38.152Z,12.13
2018-10-17T17:05:08.935Z,11.40
2018-10-17T17:07:36.998Z,11.70
2018-10-17T17:10:05.679Z,13.10
2018-10-17T17:12:33.751Z,12.43
2018-10-17T17:15:01.924Z,11.73
2018-10-17T17:17:30.069Z,11.97
2018-10-17T17:19:58.391Z,13.00
2018-10-17T17:22:33.066Z,12.93
2018-10-17T17:25:01.128Z,12.00
2018-10-17T17:27:29.213Z,13.37
2018-10-17T17:29:57.297Z,12.27
2018-10-17T17:32:25.372Z,14.27
2018-10-17T17:34:53.446Z,12.47
2018-10-17T17:37:21.527Z,14.33
2018-10-17T17:39:49.620Z,12.90
2018-10-17T17:42:17.798Z,13.37
2018-10-17T17:44:45.875Z,13.73
2018-10-17T17:47:14.008Z,15.17
2018-10-17T17:49:42.082Z,13.90
2018-10-17T17:52:10.247Z,13.23
2018-10-17T17:54:38.311Z,14.70
2018-10-17T17:57:06.719Z,13.40
2018-10-17T17:59:34.834Z,14.67
2018-10-17T18:02:02.922Z,15.30
2018-10-17T18:04:31.008Z,14.33
2018-10-17T18:06:59.103Z,16.20
2018-10-17T18:09:27.181Z,14.10
2018-10-17T18:11:55.298Z,14.57
2018-10-17T18:14:23.385Z,14.17
2018-10-17T18:16:51.455Z,15.30
2018-10-17T18:19:19.534Z,15.03
2018-10-17T18:21:47.648Z,14.40
2018-10-17T18:24:15.786Z,14.00
2018-10-17T18:26:43.866Z,15.37
2018-10-17T18:29:11.930Z,15.50
2018-10-17T18:31:40.006Z,14.67
2018-10-17T18:34:08.107Z,14.43
2018-10-17T18:36:36.182Z,15.50
2018-10-17T18:39:06.355Z,16.00
2018-10-17T18:41:34.432Z,14.27
2018-10-17T18:44:02.534Z,16.17
2018-10-17T18:46:31.726Z,18.07
2018-10-17T18:48:59.825Z,17.53
2018-10-17T18:51:27.895Z,17.37
2018-10-17T18:53:56.036Z,19.30
2018-10-17T18:56:24.162Z,20.17
2018-10-17T18:58:52.302Z,19.47
2018-10-17T19:01:20.407Z,25.73
2018-10-17T19:03:48.457Z,24.50
2018-10-17T19:06:16.537Z,25.50
2018-10-17T19:08:44.643Z,28.30
2018-10-17T19:11:12.714Z,28.40
2018-10-17T19:13:40.786Z,29.60
2018-10-17T19:16:08.954Z,30.30
2018-10-17T19:18:36.944Z,29.97
2018-10-17T19:21:05.226Z,28.40
2018-10-17T19:23:33.227Z,27.90
2018-10-17T19:26:01.315Z,29.87
2018-10-17T19:28:29.382Z,30.50
2018-10-17T19:30:57.462Z,29.03
2018-10-17T19:33:25.593Z,32.27
2018-10-17T19:35:53.717Z,30.87
2018-10-17T19:38:21.762Z,30.40
2018-10-17T19:40:49.843Z,31.13
2018-10-17T19:43:17.916Z,33.00
2018-10-17T19:45:46.010Z,33.40
2018-10-17T19:48:14.076Z,33.83
2018-10-17T19:50:42.147Z,31.47
2018-10-17T19:53:10.250Z,35.63
2018-10-17T19:55:38.327Z,35.53
2018-10-17T19:58:06.410Z,35.60
2018-10-17T20:00:34.487Z,38.40
2018-10-17T20:03:02.570Z,37.77
2018-10-17T20:05:30.648Z,36.97
2018-10-17T20:07:58.727Z,38.67
2018-10-17T20:10:26.905Z,40.27
2018-10-17T20:12:54.986Z,41.80
2018-10-17T20:15:23.106Z,45.10
2018-10-17T20:17:51.182Z,42.63
2018-10-17T20:20:19.272Z,44.00
2018-10-17T20:22:47.344Z,44.00
2018-10-17T20:25:15.505Z,45.33
2018-10-17T20:27:43.542Z,45.37
2018-10-17T20:30:11.631Z,43.20
2018-10-17T20:32:39.866Z,45.13
2018-10-17T20:35:08.331Z,48.37
2018-10-17T20:37:36.334Z,47.20
2018-10-17T20:40:04.711Z,48.50
2018-10-17T20:42:32.787Z,49.10
2018-10-17T20:45:00.851Z,47.70
2018-10-17T20:47:28.941Z,47.80
2018-10-17T20:49:57.060Z,49.07
2018-10-17T20:52:25.108Z,50.17
2018-10-17T20:54:53.147Z,48.40
2018-10-17T20:57:21.241Z,51.30
2018-10-17T20:59:49.328Z,50.40
2018-10-17T21:02:17.483Z,51.33
2018-10-17T21:04:45.474Z,49.57
2018-10-17T21:07:13.550Z,49.53
2018-10-17T21:09:41.618Z,48.77
2018-10-17T21:12:09.699Z,49.50
2018-10-17T21:14:37.762Z,51.00
2018-10-17T21:17:06.279Z,49.60
2018-10-17T21:19:34.350Z,52.23
2018-10-17T21:22:02.438Z,52.30
2018-10-17T21:24:30.806Z,50.47
2018-10-17T21:26:58.959Z,54.33
2018-10-17T21:29:26.962Z,53.93
2018-10-17T21:31:55.076Z,55.57
2018-10-17T21:34:23.122Z,56.77
2018-10-17T21:36:51.219Z,59.13
2018-10-17T21:39:19.298Z,60.30
2018-10-17T21:41:47.398Z,59.80
2018-10-17T21:44:15.568Z,61.20
2018-10-17T21:46:43.562Z,59.93
2018-10-17T21:49:11.634Z,58.77
2018-10-17T21:51:40.327Z,61.80
2018-10-17T21:54:08.417Z,65.60
2018-10-17T21:56:36.715Z,61.70
2018-10-17T21:59:05.402Z,64.63
2018-10-17T22:01:33.486Z,63.83
2018-10-17T22:04:01.572Z,62.50
2018-10-17T22:06:29.642Z,61.47
2018-10-17T22:08:57.707Z,59.70
2018-10-17T22:11:25.781Z,60.60
2018-10-17T22:13:54.032Z,64.00
2018-10-17T22:16:26.401Z,68.10
2018-10-17T22:18:54.500Z,60.10
2018-10-17T22:21:22.553Z,63.70
2018-10-17T22:23:50.659Z,64.63
2018-10-17T22:26:18.831Z,62.97
2018-10-17T22:28:46.827Z,69.23
2018-10-17T22:31:14.907Z,65.67
2018-10-17T22:33:42.982Z,69.23
2018-10-17T22:36:11.076Z,66.40
2018-10-17T22:38:39.157Z,71.70
2018-10-17T22:41:07.245Z,70.03
2018-10-17T22:43:35.306Z,68.33
2018-10-17T22:46:03.382Z,68.43
2018-10-17T22:48:31.465Z,68.37
2018-10-17T22:50:59.539Z,71.17
2018-10-17T22:53:27.639Z,66.97
2018-10-17T22:55:55.729Z,72.93
2018-10-17T22:58:23.809Z,72.30
2018-10-17T23:00:51.882Z,71.47
2018-10-17T23:03:19.962Z,74.97
2018-10-17T23:05:48.046Z,74.80
2018-10-17T23:08:16.245Z,72.67
2018-10-17T23:10:44.250Z,74.70
2018-10-17T23:13:12.343Z,74.30
2018-10-17T23:15:40.515Z,70.93
2018-10-17T23:18:08.594Z,73.37
2018-10-17T23:20:36.677Z,76.60
2018-10-17T23:23:04.928Z,72.43
2018-10-17T23:25:32.998Z,77.03
2018-10-17T23:28:01.311Z,76.67
2018-10-17T23:30:29.389Z,74.60
2018-10-17T23:32:57.532Z,73.00
2018-10-17T23:35:25.771Z,73.93
2018-10-17T23:37:53.892Z,77.47
2018-10-17T23:40:21.936Z,77.97
2018-10-17T23:42:50.024Z,74.00
2018-10-17T23:45:18.078Z,73.47
2018-10-17T23:47:46.158Z,72.30
2018-10-17T23:50:14.383Z,70.90
2018-10-17T23:52:42.423Z,71.97
2018-10-17T23:55:10.510Z,72.67
2018-10-17T23:57:38.762Z,73.17
